Bath, South Dakota
Current Conditions -  °F | °C
As of 5:29 PM on Wednesday 22 Oct 2014 (Local Time) from KABR Reporting Station
Scattered Clouds Scattered Clouds  
Wind Chill: 58°   Ceiling: Unl
Heat Index: 58°   Visibility: 10mi
Dew Point: 52°   Wind: 9mph
Humidity: 81%   Direction: 250°WSW
Pressure: 29.92"   Gusts: NA
Location:  45.47°N, 98.33°W
Report Text: KABR 222229Z AUTO 25008KT 10SM SCT016 14/11 A2992 RMK AO2 T01440111
Loading
Personal Weather Stations






























Interactive Weather Map
Tropical Storm Tracking
New forecast layout! Learn more

10-Day Weather Forecast

Advertisements
Track Severe Weather on mobile